Time;durP1;ratioP1;P1;durP2;ratioP2;P2;SDS_P1;SDS_P2;PMS_P1;PMS_P2;Temp;Humidity;BMP_temperature;BMP_pressure;BME280_temperature;BME280_humidity;BME280_pressure;Samples;Min_cycle;Max_cycle;Signal;HPM_P1;HPM_P2
2021/03/16 00:00:05;;;;;;;4.80;3.87;;;5.80;99.90;;;;;;5053632;28;20831;-48
2021/03/16 00:02:51;;;;;;;6.60;4.30;;;6.30;99.90;;;;;;5053020;28;20547;-48
2021/03/16 00:05:17;;;;;;;6.40;5.77;;;6.20;99.90;;;;;;5053123;28;20441;-47
2021/03/16 00:07:44;;;;;;;7.60;5.33;;;6.10;99.90;;;;;;5052996;28;20525;-47
2021/03/16 00:10:10;;;;;;;5.40;4.40;;;6.30;99.90;;;;;;5053023;28;20434;-48
2021/03/16 00:12:36;;;;;;;5.50;4.53;;;6.20;99.90;;;;;;5052611;28;21057;-48
2021/03/16 00:15:04;;;;;;;5.70;3.87;;;6.50;99.90;;;;;;5052797;28;20440;-48
2021/03/16 00:17:30;;;;;;;6.40;4.60;;;6.30;99.90;;;;;;5034786;28;20555;-48
2021/03/16 00:19:57;;;;;;;6.07;4.23;;;6.30;99.90;;;;;;5052551;28;20431;-48
2021/03/16 00:22:23;;;;;;;7.63;4.83;;;6.30;99.90;;;;;;5034188;28;20489;-47
2021/03/16 00:24:50;;;;;;;6.10;5.17;;;6.30;99.90;;;;;;5052703;28;20927;-49
2021/03/16 00:27:16;;;;;;;4.83;4.30;;;6.10;99.90;;;;;;5052179;28;20450;-48
2021/03/16 00:29:42;;;;;;;5.17;4.40;;;6.30;99.90;;;;;;5052570;28;20897;-48
2021/03/16 00:32:09;;;;;;;8.20;4.60;;;6.30;99.90;;;;;;5052779;28;20518;-48
2021/03/16 00:34:35;;;;;;;6.03;5.07;;;6.20;99.90;;;;;;5052412;28;20430;-49
2021/03/16 00:37:02;;;;;;;6.10;5.27;;;6.20;99.90;;;;;;5052453;28;20430;-48
2021/03/16 00:39:28;;;;;;;5.73;5.20;;;6.30;99.90;;;;;;5052457;28;20469;-49
2021/03/16 00:41:55;;;;;;;7.03;5.50;;;6.10;99.90;;;;;;5052171;28;20804;-48
2021/03/16 00:44:21;;;;;;;7.63;5.93;;;6.00;99.90;;;;;;5051856;28;20433;-48
2021/03/16 00:46:47;;;;;;;4.60;4.20;;;6.30;99.90;;;;;;5052210;28;20521;-48
2021/03/16 00:49:14;;;;;;;5.40;4.20;;;6.10;99.90;;;;;;5034228;28;20451;-48
2021/03/16 00:51:40;;;;;;;5.50;4.53;;;6.40;99.90;;;;;;5034286;28;20851;-49
2021/03/16 00:54:07;;;;;;;4.67;4.20;;;6.20;99.90;;;;;;5051771;28;20444;-47
2021/03/16 00:56:34;;;;;;;5.43;4.13;;;6.30;99.90;;;;;;5052248;28;20449;-49
2021/03/16 00:59:00;;;;;;;4.77;4.30;;;6.50;99.90;;;;;;5052347;28;20424;-49
2021/03/16 01:01:26;;;;;;;4.13;3.73;;;6.20;99.90;;;;;;5051837;28;20482;-48
2021/03/16 01:03:52;;;;;;;8.83;5.03;;;6.30;99.90;;;;;;5051431;28;20856;-48
2021/03/16 01:06:19;;;;;;;5.13;4.03;;;6.10;99.90;;;;;;5051843;28;20527;-48
2021/03/16 01:08:45;;;;;;;6.63;6.00;;;6.20;99.90;;;;;;5051755;28;20435;-48
2021/03/16 01:11:12;;;;;;;5.70;5.07;;;6.00;99.90;;;;;;5051926;28;20575;-48
2021/03/16 01:13:38;;;;;;;5.93;5.30;;;6.20;99.90;;;;;;5051397;28;20456;-47
2021/03/16 01:16:05;;;;;;;5.77;5.17;;;6.40;99.90;;;;;;5051786;28;20445;-48
2021/03/16 01:18:32;;;;;;;6.00;4.87;;;6.30;99.90;;;;;;5051827;28;20436;-49
2021/03/16 01:20:58;;;;;;;5.20;4.70;;;6.00;99.90;;;;;;5052120;28;20528;-48
2021/03/16 01:23:25;;;;;;;5.37;4.87;;;6.20;99.90;;;;;;5052177;28;20454;-49
2021/03/16 01:25:51;;;;;;;5.33;4.70;;;5.80;99.90;;;;;;5052190;28;20470;-48
2021/03/16 01:28:19;;;;;;;5.97;5.07;;;6.10;99.90;;;;;;5052292;28;20442;-48
2021/03/16 01:30:46;;;;;;;5.67;4.90;;;6.20;99.90;;;;;;5052211;28;20991;-47
2021/03/16 01:33:12;;;;;;;5.63;4.70;;;6.30;99.90;;;;;;5052247;28;20465;-48
2021/03/16 01:35:38;;;;;;;6.50;5.00;;;6.20;99.90;;;;;;5052635;28;20918;-48
2021/03/16 01:38:04;;;;;;;6.67;5.50;;;6.10;99.90;;;;;;5051271;28;20472;-47
2021/03/16 01:40:33;;;;;;;6.57;5.97;;;6.20;99.90;;;;;;5051969;28;20446;-47
2021/03/16 01:43:11;;;;;;;7.10;6.37;;;6.10;99.90;;;;;;5051888;28;20554;-47
2021/03/16 01:45:39;;;;;;;7.50;6.70;;;6.30;99.90;;;;;;5051988;28;20464;-46
2021/03/16 01:48:07;;;;;;;8.27;6.03;;;6.00;99.90;;;;;;5051656;28;20445;-47
2021/03/16 01:50:34;;;;;;;8.67;5.73;;;6.30;99.90;;;;;;5050907;28;20511;-47
2021/03/16 01:53:02;;;;;;;10.23;5.87;;;6.20;99.90;;;;;;5052400;28;20546;-47
2021/03/16 01:55:29;;;;;;;8.45;6.63;;;6.00;99.90;;;;;;5051792;28;20432;-46
2021/03/16 01:57:56;;;;;;;8.47;6.37;;;5.90;99.90;;;;;;5051688;28;20215;-47
2021/03/16 02:00:43;;;;;;;7.65;5.60;;;6.20;99.90;;;;;;5051672;28;20473;-47
2021/03/16 02:03:28;;;;;;;7.85;5.25;;;5.80;99.90;;;;;;5051008;28;20239;-47
2021/03/16 02:06:18;;;;;;;6.97;4.63;;;6.10;99.90;;;;;;5051114;28;20203;-48
2021/03/16 02:09:11;;;;;;;9.50;5.40;;;5.80;99.90;;;;;;5051768;28;20204;-47
2021/03/16 02:12:02;;;;;;;6.30;5.70;;;6.00;99.90;;;;;;5051290;28;20989;-48
2021/03/16 02:14:51;;;;;;;7.90;5.65;;;5.90;99.90;;;;;;5050927;28;20430;-47
2021/03/16 02:17:38;;;;;;;5.00;4.50;;;5.80;99.90;;;;;;5051223;28;20222;-47
2021/03/16 02:20:35;;;;;;;6.40;5.70;;;5.90;99.90;;;;;;5051251;28;20441;-48
2021/03/16 02:23:33;;;;;;;6.10;5.50;;;5.60;99.90;;;;;;5050979;28;20300;-47
2021/03/16 02:26:24;;;;;;;8.50;4.50;;;5.90;99.90;;;;;;5050917;28;20245;-47
2021/03/16 02:29:14;;;;;;;7.50;5.07;;;6.00;99.90;;;;;;5050933;28;20299;-48
2021/03/16 02:32:03;;;;;;;6.27;5.13;;;6.10;99.90;;;;;;5051160;28;20633;-47
2021/03/16 02:34:51;;;;;;;6.90;4.90;;;6.00;99.90;;;;;;5051415;28;20425;-48
2021/03/16 02:37:37;;;;;;;5.90;4.80;;;5.80;99.90;;;;;;5051042;28;20227;-48
2021/03/16 02:40:25;;;;;;;7.30;5.53;;;5.80;99.90;;;;;;5050992;28;20519;-48
2021/03/16 02:43:11;;;;;;;4.85;4.35;;;5.90;99.90;;;;;;5050443;28;20273;-48
2021/03/16 02:45:58;;;;;;;4.22;3.80;;;5.60;99.90;;;;;;5050678;28;20208;-48
2021/03/16 02:48:45;;;;;;;5.93;4.13;;;5.90;99.90;;;;;;5051273;28;20640;-47
2021/03/16 02:51:30;;;;;;;6.65;4.40;;;5.80;99.90;;;;;;5054830;28;20433;-48
2021/03/16 02:54:17;;;;;;;4.18;3.78;;;5.80;99.90;;;;;;5054088;28;20223;-49
2021/03/16 02:57:03;;;;;;;5.60;3.88;;;6.10;99.90;;;;;;5054676;28;20272;-47
2021/03/16 02:59:49;;;;;;;6.60;3.95;;;5.80;99.90;;;;;;5054507;28;20602;-48
2021/03/16 03:02:35;;;;;;;4.20;3.80;;;5.90;99.90;;;;;;5076980;22;20241;-47
2021/03/16 03:05:21;;;;;;;5.38;4.63;;;6.00;99.90;;;;;;5055157;28;20431;-48
2021/03/16 03:08:09;;;;;;;6.17;4.00;;;5.50;99.90;;;;;;5055249;28;20253;-48
2021/03/16 03:10:56;;;;;;;5.85;4.35;;;5.80;99.90;;;;;;5054957;28;20784;-48
2021/03/16 03:13:41;;;;;;;5.65;4.38;;;5.70;99.90;;;;;;5054804;28;20222;-47
2021/03/16 03:16:26;;;;;;;6.95;4.85;;;5.10;99.90;;;;;;5054696;28;20329;-48
2021/03/16 03:19:12;;;;;;;7.05;4.43;;;5.80;99.90;;;;;;5054524;28;20226;-48
2021/03/16 03:22:03;;;;;;;6.70;4.38;;;5.30;99.90;;;;;;5054666;28;20238;-48
2021/03/16 03:24:53;;;;;;;7.88;4.18;;;5.70;99.90;;;;;;5054844;28;20242;-47
2021/03/16 03:27:40;;;;;;;5.10;4.30;;;5.50;99.90;;;;;;5053904;28;20692;-48
2021/03/16 03:30:26;;;;;;;5.95;4.75;;;5.60;99.90;;;;;;5055908;28;20445;-47
2021/03/16 03:33:14;;;;;;;4.32;3.92;;;5.50;99.90;;;;;;5054734;28;20227;-47
2021/03/16 03:36:01;;;;;;;6.45;4.63;;;5.70;99.90;;;;;;5054918;28;20215;-46
2021/03/16 03:38:46;;;;;;;5.80;4.35;;;5.60;99.90;;;;;;5054786;28;20199;-48
2021/03/16 03:41:32;;;;;;;6.30;4.80;;;5.50;99.90;;;;;;5054449;28;20222;-47
2021/03/16 03:44:19;;;;;;;7.70;5.05;;;5.70;99.90;;;;;;5054011;28;20593;-48
2021/03/16 03:47:05;;;;;;;6.00;5.40;;;5.70;99.90;;;;;;5054560;28;20254;-48
2021/03/16 03:49:51;;;;;;;6.60;4.15;;;5.60;99.90;;;;;;5054273;28;20740;-48
2021/03/16 03:52:38;;;;;;;5.57;3.90;;;5.50;99.90;;;;;;5053715;28;20773;-47
2021/03/16 03:55:23;;;;;;;8.70;4.43;;;5.50;99.90;;;;;;5054157;28;20253;-47
2021/03/16 03:58:09;;;;;;;5.82;4.13;;;5.50;99.90;;;;;;5054061;28;20219;-47
2021/03/16 04:00:55;;;;;;;7.80;4.25;;;5.30;99.90;;;;;;5053374;28;20238;-48
2021/03/16 04:03:40;;;;;;;4.95;3.92;;;5.70;99.90;;;;;;5053925;28;20230;-48
2021/03/16 04:06:26;;;;;;;6.20;3.47;;;5.50;99.90;;;;;;5054846;28;20690;-47
2021/03/16 04:09:12;;;;;;;7.85;4.05;;;4.80;99.90;;;;;;5054157;28;20206;-47
2021/03/16 04:11:57;;;;;;;4.88;3.42;;;5.50;99.90;;;;;;5053788;28;20691;-47
2021/03/16 04:14:42;;;;;;;7.35;3.50;;;5.40;99.90;;;;;;5053999;28;20665;-49
2021/03/16 04:17:27;;;;;;;6.50;4.20;;;4.80;99.90;;;;;;5053634;28;20291;-48
2021/03/16 04:20:13;;;;;;;9.07;4.07;;;5.30;99.90;;;;;;5053777;28;20298;-48
2021/03/16 04:22:58;;;;;;;8.13;4.80;;;5.40;99.90;;;;;;5054568;28;20458;-47
2021/03/16 04:25:44;;;;;;;8.30;3.78;;;5.40;99.90;;;;;;5054645;28;20207;-47
2021/03/16 04:28:28;;;;;;;6.53;3.72;;;5.60;99.90;;;;;;5055273;28;20249;-48
2021/03/16 04:31:13;;;;;;;8.65;4.43;;;5.40;99.90;;;;;;5055898;28;20250;-47
2021/03/16 04:33:58;;;;;;;7.40;4.10;;;5.70;99.90;;;;;;5054094;28;20718;-47
2021/03/16 04:36:42;;;;;;;5.85;3.72;;;5.70;99.90;;;;;;5054425;28;20211;-48
2021/03/16 04:39:27;;;;;;;7.85;3.67;;;5.40;99.90;;;;;;5053896;28;20207;-48
2021/03/16 04:42:13;;;;;;;7.90;4.00;;;5.60;99.90;;;;;;5053971;28;20269;-47
2021/03/16 04:44:57;;;;;;;12.87;5.13;;;5.60;99.90;;;;;;5053960;28;20674;-48
2021/03/16 04:47:42;;;;;;;5.45;3.90;;;5.30;99.90;;;;;;5054031;28;20430;-47
2021/03/16 04:50:27;;;;;;;8.15;4.55;;;5.70;99.90;;;;;;5054359;28;20591;-47
2021/03/16 04:53:12;;;;;;;4.63;4.15;;;5.50;99.90;;;;;;5053378;28;20303;-47
2021/03/16 04:55:56;;;;;;;6.85;3.92;;;5.50;99.90;;;;;;5053745;28;20283;-48
2021/03/16 04:58:42;;;;;;;7.18;4.10;;;5.50;99.90;;;;;;5053590;28;20218;-49
2021/03/16 05:01:27;;;;;;;8.13;4.93;;;5.50;99.90;;;;;;5053391;28;20306;-47
2021/03/16 05:04:12;;;;;;;9.73;3.90;;;5.40;99.90;;;;;;5053526;28;20230;-48
2021/03/16 05:06:57;;;;;;;4.88;3.35;;;5.50;99.90;;;;;;5053474;28;20206;-47
2021/03/16 05:09:42;;;;;;;7.18;3.40;;;5.40;99.90;;;;;;5053224;28;20738;-47
2021/03/16 05:12:27;;;;;;;4.88;3.70;;;5.50;99.90;;;;;;5051287;28;20628;-47
2021/03/16 05:15:14;;;;;;;8.32;3.97;;;5.90;99.90;;;;;;5052693;28;20203;-48
2021/03/16 05:17:58;;;;;;;4.55;3.20;;;5.60;99.90;;;;;;5054099;28;20210;-48
2021/03/16 05:20:43;;;;;;;4.20;3.35;;;5.30;99.90;;;;;;5054095;28;20258;-46
2021/03/16 05:23:28;;;;;;;7.70;3.50;;;5.60;99.90;;;;;;5052818;28;20228;-48
2021/03/16 05:26:12;;;;;;;6.82;4.45;;;5.40;99.90;;;;;;5052564;28;20206;-47
2021/03/16 05:28:57;;;;;;;5.28;4.38;;;5.50;99.90;;;;;;5052608;28;20211;-49
2021/03/16 05:31:43;;;;;;;8.77;4.75;;;5.40;99.90;;;;;;5052215;28;20246;-49
2021/03/16 05:34:28;;;;;;;5.88;3.00;;;5.40;99.90;;;;;;5052051;28;20709;-49
2021/03/16 05:37:12;;;;;;;4.18;3.13;;;5.60;99.90;;;;;;5052848;28;20281;-48
2021/03/16 05:39:57;;;;;;;8.15;3.90;;;5.50;99.90;;;;;;5052231;28;20757;-47
2021/03/16 05:42:42;;;;;;;7.55;3.20;;;5.50;99.90;;;;;;5051934;28;20234;-47
2021/03/16 05:45:28;;;;;;;4.47;2.45;;;5.30;99.90;;;;;;5052327;28;20285;-48
2021/03/16 05:48:14;;;;;;;4.93;3.08;;;5.20;99.90;;;;;;5051840;28;20722;-48
2021/03/16 05:51:00;;;;;;;4.95;2.80;;;5.60;99.90;;;;;;5052406;28;20249;-49
2021/03/16 05:53:49;;;;;;;3.35;2.53;;;5.50;99.90;;;;;;5051237;28;20277;-49
2021/03/16 05:56:34;;;;;;;3.05;2.60;;;5.10;99.90;;;;;;5052163;28;20218;-47
2021/03/16 05:59:20;;;;;;;5.22;2.60;;;5.20;99.90;;;;;;5051781;28;20253;-47
2021/03/16 06:02:04;;;;;;;6.03;2.90;;;5.30;99.90;;;;;;5051531;28;20231;-48
2021/03/16 06:04:50;;;;;;;5.65;3.25;;;5.40;99.90;;;;;;5052235;28;20207;-48
2021/03/16 06:07:35;;;;;;;5.75;3.55;;;5.20;99.90;;;;;;5051551;28;20203;-47
2021/03/16 06:10:21;;;;;;;4.18;3.30;;;5.40;99.90;;;;;;5051662;28;20250;-48
2021/03/16 06:13:11;;;;;;;6.75;3.67;;;5.10;99.90;;;;;;5051332;28;20250;-47
2021/03/16 06:15:59;;;;;;;4.97;3.35;;;5.60;99.90;;;;;;5051678;28;20210;-47
2021/03/16 06:18:45;;;;;;;6.50;3.67;;;5.90;99.90;;;;;;5051732;28;20206;-48
2021/03/16 06:21:31;;;;;;;5.47;3.67;;;5.20;99.90;;;;;;5052182;28;20516;-47
2021/03/16 06:24:16;;;;;;;6.22;3.42;;;5.30;99.90;;;;;;5053190;28;20442;-47
2021/03/16 06:27:00;;;;;;;6.97;3.60;;;5.50;99.90;;;;;;5055608;28;20226;-47
2021/03/16 06:29:46;;;;;;;11.60;3.97;;;4.90;99.90;;;;;;5055378;28;20738;-48
2021/03/16 06:32:35;;;;;;;5.03;3.75;;;5.30;99.90;;;;;;5055376;28;20622;-46
2021/03/16 06:35:20;;;;;;;11.52;3.72;;;5.90;99.90;;;;;;5055514;28;20202;-48
2021/03/16 06:38:07;;;;;;;6.53;3.40;;;5.40;99.90;;;;;;5055580;28;20206;-48
2021/03/16 06:40:53;;;;;;;10.65;3.92;;;5.60;99.90;;;;;;5055218;28;20250;-48
2021/03/16 06:43:38;;;;;;;7.50;4.43;;;5.60;99.90;;;;;;5054475;28;20367;-48
2021/03/16 06:46:30;;;;;;;7.43;4.43;;;5.40;99.90;;;;;;5055039;28;20330;-48
2021/03/16 06:49:17;;;;;;;10.23;5.00;;;5.70;99.90;;;;;;5055695;28;20225;-48
2021/03/16 06:52:11;;;;;;;7.72;3.70;;;5.50;99.90;;;;;;5055233;28;20195;-48
2021/03/16 06:55:09;;;;;;;7.32;3.92;;;5.80;99.90;;;;;;5055188;28;20283;-48
2021/03/16 06:58:04;;;;;;;7.47;3.85;;;5.00;99.90;;;;;;5055201;28;20281;-48
2021/03/16 07:00:49;;;;;;;9.45;4.93;;;5.50;99.90;;;;;;5055396;28;20230;-47
2021/03/16 07:03:34;;;;;;;5.32;4.35;;;5.70;99.90;;;;;;5055156;28;20293;-47
2021/03/16 07:06:20;;;;;;;5.63;4.45;;;5.60;99.90;;;;;;5055627;28;20207;-47
2021/03/16 07:09:06;;;;;;;13.95;3.95;;;5.70;99.90;;;;;;5056099;28;20210;-48
2021/03/16 07:11:55;;;;;;;9.02;4.25;;;5.80;99.90;;;;;;5055384;28;20223;-49
2021/03/16 07:14:41;;;;;;;5.60;3.85;;;5.60;99.90;;;;;;5055975;28;20207;-47
2021/03/16 07:17:27;;;;;;;6.32;4.32;;;5.20;99.90;;;;;;5055658;28;20378;-48
2021/03/16 07:20:14;;;;;;;7.82;4.70;;;5.70;99.90;;;;;;5055647;28;20710;-47
2021/03/16 07:23:00;;;;;;;7.13;3.95;;;5.60;99.90;;;;;;5054623;28;20340;-47
2021/03/16 07:25:45;;;;;;;7.25;3.97;;;5.70;99.90;;;;;;5055156;28;20249;-48
2021/03/16 07:28:32;;;;;;;6.93;3.95;;;5.10;99.90;;;;;;5055025;28;20322;-48
2021/03/16 07:31:18;;;;;;;5.00;4.10;;;5.90;99.90;;;;;;5055310;28;20219;-48
2021/03/16 07:34:05;;;;;;;7.45;4.13;;;5.80;99.90;;;;;;5054149;28;20465;-48
2021/03/16 07:36:51;;;;;;;5.25;3.60;;;5.90;99.90;;;;;;5053565;28;20262;-48
2021/03/16 07:39:36;;;;;;;8.93;4.43;;;6.00;99.90;;;;;;5054492;28;20249;-48
2021/03/16 07:42:21;;;;;;;6.25;3.90;;;5.80;99.90;;;;;;5053599;28;20481;-48
2021/03/16 07:45:08;;;;;;;6.53;3.23;;;5.90;99.90;;;;;;5053910;28;20207;-48
2021/03/16 07:47:54;;;;;;;6.73;3.23;;;5.90;99.90;;;;;;5053891;28;20458;-48
2021/03/16 07:50:38;;;;;;;4.77;3.67;;;6.30;99.90;;;;;;5053962;28;20563;-48
2021/03/16 07:53:25;;;;;;;10.38;4.07;;;5.50;99.90;;;;;;5053838;28;20541;-47
2021/03/16 07:56:13;;;;;;;7.00;4.15;;;6.30;99.90;;;;;;5054001;28;20203;-47
2021/03/16 07:58:58;;;;;;;11.13;5.50;;;5.70;99.90;;;;;;5054286;28;20215;-48
2021/03/16 08:01:48;;;;;;;14.15;4.30;;;5.80;99.90;;;;;;5054151;28;20492;-48
2021/03/16 08:04:35;;;;;;;6.47;3.90;;;5.80;99.90;;;;;;5053235;28;20203;-47
2021/03/16 08:07:22;;;;;;;12.20;5.10;;;6.10;99.90;;;;;;5054880;28;20218;-49
2021/03/16 08:10:08;;;;;;;5.70;3.90;;;6.60;99.90;;;;;;5054218;28;20779;-48
2021/03/16 08:12:59;;;;;;;5.80;3.88;;;6.00;99.90;;;;;;5054013;28;20450;-47
2021/03/16 08:15:46;;;;;;;8.30;4.25;;;6.20;99.90;;;;;;5054091;28;20620;-47
2021/03/16 08:18:34;;;;;;;9.33;4.40;;;6.30;99.90;;;;;;5053712;28;20211;-49
2021/03/16 08:21:19;;;;;;;14.77;4.75;;;6.30;99.90;;;;;;5053406;28;21040;-47
2021/03/16 08:24:06;;;;;;;9.60;4.20;;;6.10;99.90;;;;;;5053055;28;20262;-48
2021/03/16 08:26:54;;;;;;;8.93;4.23;;;6.10;99.90;;;;;;5053513;28;20433;-48
2021/03/16 08:29:43;;;;;;;7.43;4.30;;;6.20;99.90;;;;;;5053611;28;20484;-48
2021/03/16 08:32:29;;;;;;;7.87;4.10;;;6.00;99.90;;;;;;5053060;28;20449;-48
2021/03/16 08:35:17;;;;;;;14.07;4.03;;;6.10;99.90;;;;;;5053388;28;20930;-48
2021/03/16 08:38:03;;;;;;;7.70;3.83;;;6.10;99.90;;;;;;5053713;28;20468;-46
2021/03/16 08:40:49;;;;;;;6.87;4.00;;;6.10;99.90;;;;;;5053747;28;20451;-49
2021/03/16 08:43:35;;;;;;;8.93;5.57;;;6.30;99.90;;;;;;5052300;28;20434;-48
2021/03/16 08:46:32;;;;;;;6.47;4.37;;;6.10;99.90;;;;;;5052696;28;20529;-48
2021/03/16 08:49:18;;;;;;;14.33;4.80;;;6.10;99.90;;;;;;5052673;28;20438;-48
2021/03/16 08:52:04;;;;;;;6.80;3.83;;;6.20;99.90;;;;;;5053421;28;20521;-49
2021/03/16 08:54:50;;;;;;;6.60;3.87;;;6.20;99.90;;;;;;5054216;28;20945;-48
2021/03/16 08:57:36;;;;;;;5.40;3.80;;;6.50;99.90;;;;;;5053061;28;20448;-49
2021/03/16 09:00:30;;;;;;;8.90;3.97;;;6.30;99.90;;;;;;5053725;28;20418;-47
2021/03/16 09:03:15;;;;;;;5.80;3.90;;;6.40;99.90;;;;;;5053203;28;20802;-47
2021/03/16 09:06:01;;;;;;;6.00;4.17;;;6.40;99.90;;;;;;5053310;28;20457;-47
2021/03/16 09:08:51;;;;;;;6.07;4.00;;;6.50;99.90;;;;;;5054134;28;20426;-48
2021/03/16 09:11:41;;;;;;;14.00;5.20;;;6.50;99.90;;;;;;5052536;28;20492;-49
2021/03/16 09:14:26;;;;;;;4.60;3.63;;;6.50;99.90;;;;;;5052107;28;20450;-47
2021/03/16 09:17:11;;;;;;;7.90;3.90;;;6.50;99.90;;;;;;5053431;28;20433;-48
2021/03/16 09:19:56;;;;;;;5.17;3.33;;;6.40;99.90;;;;;;5053082;28;20476;-49
2021/03/16 09:22:42;;;;;;;6.13;3.53;;;6.60;99.90;;;;;;5052106;28;20570;-48
2021/03/16 09:25:30;;;;;;;6.97;3.70;;;6.30;99.90;;;;;;5052582;28;20439;-49
2021/03/16 09:28:16;;;;;;;5.23;3.63;;;6.60;99.90;;;;;;5052801;28;20421;-47
2021/03/16 09:31:02;;;;;;;5.57;3.70;;;6.60;99.90;;;;;;5052215;28;20798;-50
2021/03/16 09:33:47;;;;;;;6.53;3.60;;;6.60;99.90;;;;;;5052429;28;20589;-48
2021/03/16 09:36:32;;;;;;;10.67;3.60;;;6.80;99.90;;;;;;5052998;28;20545;-49
2021/03/16 09:39:25;;;;;;;5.60;3.50;;;7.10;99.90;;;;;;5028890;28;20847;-48
2021/03/16 09:42:10;;;;;;;3.83;2.67;;;7.20;99.90;;;;;;5034577;28;20819;-47
2021/03/16 09:44:39;;;;;;;7.40;2.73;;;6.90;99.90;;;;;;5052526;28;20460;-48
2021/03/16 09:47:07;;;;;;;5.00;3.10;;;6.90;99.90;;;;;;5052316;28;20438;-47
2021/03/16 09:49:35;;;;;;;7.73;3.87;;;6.40;99.90;;;;;;5034229;28;20547;-48
2021/03/16 09:52:07;;;;;;;5.77;3.20;;;7.10;99.90;;;;;;5035287;28;20444;-50
2021/03/16 09:54:41;;;;;;;6.30;3.37;;;6.90;99.90;;;;;;5052598;28;20943;-49
2021/03/16 09:57:10;;;;;;;4.30;2.40;;;7.10;99.90;;;;;;5052289;28;20446;-49
2021/03/16 09:59:39;;;;;;;5.20;3.43;;;7.10;99.90;;;;;;5051558;28;20504;-49
2021/03/16 10:02:06;;;;;;;6.47;3.17;;;6.90;99.90;;;;;;5052129;28;20466;-48
2021/03/16 10:04:46;;;;;;;3.80;2.80;;;7.10;99.90;;;;;;5052310;28;20459;-48
2021/03/16 10:07:24;;;;;;;6.60;4.37;;;7.70;99.90;;;;;;5052517;28;20942;-48
2021/03/16 10:09:51;;;;;;;5.20;3.30;;;7.20;99.90;;;;;;5052927;28;20570;-47
2021/03/16 10:12:20;;;;;;;4.40;2.90;;;6.80;99.90;;;;;;5052183;28;20985;-47
2021/03/16 10:14:49;;;;;;;5.67;3.47;;;7.40;99.90;;;;;;5052312;28;20444;-48
2021/03/16 10:17:24;;;;;;;3.40;2.27;;;7.40;99.90;;;;;;5051884;28;20847;-47
2021/03/16 10:19:55;;;;;;;4.00;2.90;;;7.60;99.90;;;;;;5051720;28;20462;-48
2021/03/16 10:22:27;;;;;;;7.57;2.90;;;7.30;99.90;;;;;;5051592;28;20453;-48
2021/03/16 10:24:55;;;;;;;6.47;4.00;;;7.60;99.90;;;;;;5051969;28;20407;-49
2021/03/16 10:27:28;;;;;;;8.50;3.57;;;7.60;99.90;;;;;;5052082;28;20944;-49
2021/03/16 10:29:55;;;;;;;6.23;3.87;;;7.70;99.90;;;;;;5052261;28;20436;-48
2021/03/16 10:32:22;;;;;;;4.30;3.00;;;7.40;99.90;;;;;;5051333;28;20411;-48
2021/03/16 10:34:48;;;;;;;10.37;3.23;;;7.30;99.90;;;;;;5051697;28;20437;-48
2021/03/16 10:37:20;;;;;;;9.37;3.10;;;7.70;99.90;;;;;;5051902;28;20846;-50
2021/03/16 10:39:48;;;;;;;9.17;3.00;;;7.80;99.90;;;;;;5052196;28;20437;-48
2021/03/16 10:42:15;;;;;;;5.80;2.57;;;7.60;99.90;;;;;;5051228;28;20895;-47
2021/03/16 10:44:45;;;;;;;6.27;2.70;;;7.90;99.90;;;;;;5052555;28;20436;-49
2021/03/16 10:47:13;;;;;;;5.60;2.77;;;8.20;99.90;;;;;;5051734;28;20455;-49
2021/03/16 10:49:39;;;;;;;9.13;2.60;;;7.90;99.90;;;;;;5052353;28;20450;-48
2021/03/16 10:52:06;;;;;;;5.03;2.60;;;8.10;99.90;;;;;;5052230;28;20417;-48
2021/03/16 10:54:35;;;;;;;20.83;4.33;;;8.10;99.80;;;;;;5051790;28;20460;-48
2021/03/16 10:57:03;;;;;;;6.33;2.33;;;8.30;99.80;;;;;;5052393;28;20434;-47
2021/03/16 10:59:29;;;;;;;5.27;1.87;;;8.20;98.90;;;;;;5051975;28;20786;-49
2021/03/16 11:01:57;;;;;;;10.20;3.13;;;8.40;98.30;;;;;;5051741;28;20996;-49
2021/03/16 11:04:23;;;;;;;3.90;1.57;;;8.20;98.70;;;;;;5051767;28;20903;-49
2021/03/16 11:06:50;;;;;;;7.90;2.00;;;8.60;98.30;;;;;;5051757;28;20466;-48
2021/03/16 11:09:17;;;;;;;2.97;1.70;;;8.30;96.70;;;;;;5051717;28;20430;-48
2021/03/16 11:11:44;;;;;;;2.00;1.47;;;8.20;96.40;;;;;;5055859;28;20428;-48
2021/03/16 11:14:11;;;;;;;10.07;2.10;;;8.40;97.00;;;;;;5055003;28;20957;-48
2021/03/16 11:16:37;;;;;;;3.70;1.80;;;8.40;96.00;;;;;;5056085;28;20457;-49
2021/03/16 11:19:05;;;;;;;5.77;2.33;;;8.40;95.80;;;;;;5055541;28;20430;-48
2021/03/16 11:21:32;;;;;;;3.70;1.80;;;8.70;95.70;;;;;;5055174;28;20471;-48
2021/03/16 11:23:59;;;;;;;3.47;2.00;;;8.20;95.50;;;;;;5055047;28;20461;-48
2021/03/16 11:26:26;;;;;;;6.37;2.03;;;8.50;96.30;;;;;;5055474;28;20434;-48
2021/03/16 11:28:53;;;;;;;4.60;2.50;;;8.70;97.00;;;;;;5055546;28;20432;-49
2021/03/16 11:31:20;;;;;;;5.07;2.30;;;8.50;97.40;;;;;;5037331;28;20549;-49
2021/03/16 11:34:05;;;;;;;4.50;2.33;;;8.80;97.50;;;;;;5054811;28;20477;-48
2021/03/16 11:36:50;;;;;;;3.10;2.23;;;8.60;97.50;;;;;;5055267;28;20864;-48
2021/03/16 11:39:35;;;;;;;4.50;3.10;;;8.30;97.70;;;;;;5055760;28;20429;-49
2021/03/16 11:42:21;;;;;;;4.50;2.63;;;8.30;98.00;;;;;;5054610;28;20484;-49
2021/03/16 11:45:08;;;;;;;2.87;2.33;;;8.50;98.50;;;;;;5055151;28;20435;-49
2021/03/16 11:47:53;;;;;;;5.87;3.73;;;8.40;98.10;;;;;;5055109;28;20846;-49
2021/03/16 11:50:39;;;;;;;6.53;2.90;;;8.50;98.50;;;;;;5055087;28;20462;-49
2021/03/16 11:53:24;;;;;;;5.70;2.47;;;8.60;98.30;;;;;;5054435;28;20488;-48
2021/03/16 11:56:09;;;;;;;10.10;2.87;;;8.70;98.00;;;;;;5055524;28;20426;-49
2021/03/16 11:58:54;;;;;;;5.70;2.43;;;8.50;97.80;;;;;;5054568;28;20425;-49
2021/03/16 12:01:39;;;;;;;2.93;2.30;;;8.50;97.30;;;;;;5053998;28;20561;-49
2021/03/16 12:04:25;;;;;;;7.33;2.67;;;8.10;96.70;;;;;;5053588;28;20547;-49
2021/03/16 12:07:11;;;;;;;8.53;2.80;;;8.50;97.10;;;;;;5054029;28;20437;-49
2021/03/16 12:09:58;;;;;;;2.80;2.10;;;8.70;97.50;;;;;;5053406;28;20466;-50
2021/03/16 12:12:44;;;;;;;7.83;2.60;;;8.40;97.10;;;;;;5052632;28;20587;-50
2021/03/16 12:15:29;;;;;;;7.33;3.50;;;8.60;96.80;;;;;;5053345;28;20469;-50
2021/03/16 12:18:14;;;;;;;3.27;2.70;;;8.50;96.80;;;;;;5053448;28;20436;-49
2021/03/16 12:20:59;;;;;;;4.93;2.17;;;9.20;97.20;;;;;;5052973;28;20509;-50
2021/03/16 12:23:45;;;;;;;4.20;2.57;;;8.50;96.80;;;;;;5053077;28;20472;-48
2021/03/16 12:26:30;;;;;;;2.53;2.33;;;8.60;97.00;;;;;;5053238;28;20541;-50
2021/03/16 12:29:15;;;;;;;3.23;2.37;;;8.70;96.90;;;;;;5053839;28;20425;-49
2021/03/16 12:32:00;;;;;;;3.73;2.47;;;8.60;96.20;;;;;;5053468;28;20460;-48
2021/03/16 12:34:45;;;;;;;6.10;2.90;;;8.80;96.60;;;;;;5052510;28;20974;-49
2021/03/16 12:37:30;;;;;;;3.23;2.93;;;8.50;96.30;;;;;;5052805;28;20675;-49
2021/03/16 12:40:17;;;;;;;4.37;2.27;;;8.60;96.10;;;;;;5052837;28;20805;-49
2021/03/16 12:43:02;;;;;;;4.83;2.47;;;8.80;96.20;;;;;;5052651;28;21039;-49
2021/03/16 12:45:48;;;;;;;3.27;2.83;;;8.60;96.40;;;;;;5052489;28;20464;-48
2021/03/16 12:48:35;;;;;;;12.37;3.20;;;8.80;96.60;;;;;;5052696;28;20461;-49
2021/03/16 12:51:20;;;;;;;5.80;3.13;;;9.10;97.60;;;;;;5052512;28;20433;-48
2021/03/16 12:54:05;;;;;;;9.20;3.40;;;9.00;97.80;;;;;;5052019;28;21045;-49
2021/03/16 12:56:51;;;;;;;5.17;3.23;;;9.20;97.80;;;;;;5053207;28;20512;-50
2021/03/16 12:59:37;;;;;;;7.97;2.83;;;8.70;96.50;;;;;;5053052;28;20516;-50
2021/03/16 13:02:22;;;;;;;6.30;3.47;;;8.90;96.60;;;;;;5052664;28;20465;-49
2021/03/16 13:05:08;;;;;;;4.77;3.17;;;9.20;96.60;;;;;;5052865;28;20484;-50
2021/03/16 13:07:53;;;;;;;4.60;2.77;;;9.00;96.90;;;;;;5053324;28;20551;-50
2021/03/16 13:10:38;;;;;;;5.30;2.60;;;9.00;96.00;;;;;;5053281;28;20965;-49
2021/03/16 13:13:24;;;;;;;5.57;2.83;;;9.00;95.70;;;;;;5052109;28;20449;-49
2021/03/16 13:16:09;;;;;;;8.70;3.30;;;8.90;95.90;;;;;;5052442;28;20505;-48
2021/03/16 13:18:54;;;;;;;8.20;3.80;;;9.00;96.10;;;;;;5053227;28;20465;-48
2021/03/16 13:21:39;;;;;;;8.43;2.50;;;9.10;95.50;;;;;;5052710;28;20871;-49
2021/03/16 13:24:24;;;;;;;4.53;1.70;;;9.00;95.50;;;;;;5052210;28;20497;-48
2021/03/16 13:27:12;;;;;;;8.13;2.20;;;8.90;93.20;;;;;;5037251;28;20458;-49
2021/03/16 13:29:58;;;;;;;3.13;1.70;;;9.00;93.90;;;;;;5052289;28;20536;-49
2021/03/16 13:32:43;;;;;;;4.37;1.80;;;9.10;92.10;;;;;;5051375;28;20520;-49
2021/03/16 13:35:28;;;;;;;5.40;1.90;;;9.00;91.60;;;;;;5051420;28;20545;-50
2021/03/16 13:38:14;;;;;;;5.13;2.30;;;9.10;91.60;;;;;;5052050;28;20441;-49
2021/03/16 13:40:59;;;;;;;3.60;2.27;;;9.30;92.90;;;;;;5051961;28;20862;-48
2021/03/16 13:43:44;;;;;;;3.90;2.50;;;9.10;93.40;;;;;;5050679;28;20886;-50
2021/03/16 13:46:31;;;;;;;4.10;3.10;;;9.00;93.60;;;;;;5051330;28;20572;-49
2021/03/16 13:49:16;;;;;;;7.20;4.90;;;9.00;93.90;;;;;;5051064;28;20445;-49
2021/03/16 13:52:01;;;;;;;5.20;2.20;;;9.10;93.70;;;;;;5050549;28;20417;-49
2021/03/16 13:54:46;;;;;;;10.20;6.43;;;9.00;93.20;;;;;;5051923;28;20483;-49
2021/03/16 13:57:31;;;;;;;6.10;2.80;;;9.40;93.70;;;;;;5051448;28;20492;-50
2021/03/16 14:00:17;;;;;;;3.10;2.00;;;9.10;93.70;;;;;;5051309;28;20484;-49
2021/03/16 14:03:04;;;;;;;4.00;2.60;;;9.10;93.60;;;;;;5051454;28;20481;-49
2021/03/16 14:05:49;;;;;;;3.67;2.23;;;9.10;93.90;;;;;;5052046;28;20512;-49